Time;durP1;ratioP1;P1;durP2;ratioP2;P2;SDS_P1;SDS_P2;PMS_P1;PMS_P2;Temp;Humidity;BMP_temperature;BMP_pressure;BME280_temperature;BME280_humidity;BME280_pressure;Samples;Min_cycle;Max_cycle;Signal;HPM_P1;HPM_P2
2021/03/13 00:00:15;;;;;;;3.70;0.43;;;;;;;6.22;59.59;100058.63;5004945;28;20029;-80
2021/03/13 00:02:45;;;;;;;1.75;0.60;;;;;;;6.15;59.81;100047.34;4984123;28;20472;-80
2021/03/13 00:05:20;;;;;;;1.15;0.75;;;;;;;6.02;60.66;100047.59;5004415;28;20034;-81
2021/03/13 00:07:46;;;;;;;;;;;;;;;5.94;61.80;100045.31;4983021;28;20037;-81
2021/03/13 00:10:11;;;;;;;1.33;0.63;;;;;;;5.89;62.41;100037.19;4993108;28;19921;-81
2021/03/13 00:12:37;;;;;;;1.55;1.17;;;;;;;5.84;62.97;100045.06;5001835;28;20064;-81
2021/03/13 00:15:04;;;;;;;0.77;0.60;;;;;;;5.73;63.51;100046.69;5003956;22;20034;-73
2021/03/13 00:17:29;;;;;;;1.00;0.60;;;;;;;5.70;63.47;100047.97;4999117;28;20092;-73
2021/03/13 00:19:55;;;;;;;0.77;0.68;;;;;;;5.63;64.08;100041.97;5005127;28;20988;-73
2021/03/13 00:22:20;;;;;;;2.08;0.80;;;;;;;5.58;64.32;100052.50;5000288;28;20053;-73
2021/03/13 00:24:47;;;;;;;2.42;0.90;;;;;;;5.51;65.03;100040.34;5006262;28;20033;-73
2021/03/13 00:27:12;;;;;;;3.22;1.10;;;;;;;5.38;65.53;100036.06;5015723;28;21068;-73
2021/03/13 00:29:38;;;;;;;1.00;0.95;;;;;;;5.40;65.32;100050.75;5004431;28;20036;-73
2021/03/13 00:32:04;;;;;;;1.00;0.73;;;;;;;5.37;65.86;100050.41;5000296;28;20587;-73
2021/03/13 00:34:30;;;;;;;5.03;1.10;;;;;;;5.35;66.29;100044.50;5005147;28;20479;-73
2021/03/13 00:36:55;;;;;;;5.13;0.98;;;;;;;5.20;67.00;100052.13;5004738;28;20026;-73
2021/03/13 00:39:21;;;;;;;3.35;1.17;;;;;;;5.21;66.57;100051.91;5004675;28;20033;-73
2021/03/13 00:41:46;;;;;;;1.58;1.30;;;;;;;5.08;68.32;100052.94;5001021;28;20030;-73
2021/03/13 00:44:12;;;;;;;2.95;1.23;;;;;;;5.09;67.37;100053.72;5006188;28;20034;-73
2021/03/13 00:46:40;;;;;;;1.08;0.82;;;;;;;5.03;67.71;100046.69;5000335;28;20121;-73
2021/03/13 00:49:05;;;;;;;4.50;1.00;;;;;;;4.99;68.50;100053.47;5004890;28;20075;-73
2021/03/13 00:51:31;;;;;;;4.20;1.20;;;;;;;5.06;67.78;100049.69;5003147;28;20022;-73
2021/03/13 00:53:57;;;;;;;5.50;1.58;;;;;;;5.12;67.49;100050.63;5006520;28;20029;-73
2021/03/13 00:56:22;;;;;;;4.35;1.00;;;;;;;5.02;68.12;100048.50;5005469;28;20022;-73
2021/03/13 00:58:48;;;;;;;1.20;1.10;;;;;;;5.13;67.84;100061.00;5006063;28;20047;-73
2021/03/13 01:01:13;;;;;;;1.33;0.90;;;;;;;5.16;67.96;100057.06;5005589;28;20033;-73
2021/03/13 01:03:39;;;;;;;2.35;1.40;;;;;;;5.18;67.96;100054.19;5005158;28;20085;-73
2021/03/13 01:06:05;;;;;;;3.58;1.20;;;;;;;5.08;68.72;100058.22;5004765;28;20510;-73
2021/03/13 01:08:31;;;;;;;2.63;1.40;;;;;;;5.03;69.09;100054.66;5009968;28;20045;-73
2021/03/13 01:10:57;;;;;;;3.78;1.38;;;;;;;5.12;69.02;100056.72;5005838;28;20057;-73
2021/03/13 01:13:23;;;;;;;1.98;1.40;;;;;;;5.23;68.38;100063.09;5004307;28;20061;-73
2021/03/13 01:15:49;;;;;;;2.35;1.40;;;;;;;5.14;68.87;100054.66;5007218;28;20034;-73
2021/03/13 01:18:18;;;;;;;1.88;1.40;;;;;;;5.15;69.13;100064.25;5006320;28;20032;-73
2021/03/13 01:20:44;;;;;;;2.17;1.50;;;;;;;5.21;68.96;100051.91;5004106;28;20034;-73
2021/03/13 01:23:09;;;;;;;1.58;1.40;;;;;;;5.41;67.78;100046.25;5017704;28;20057;-73
2021/03/13 01:25:35;;;;;;;3.83;1.42;;;;;;;5.41;68.12;100046.25;5001572;28;20053;-73
2021/03/13 01:28:00;;;;;;;1.45;1.05;;;;;;;5.35;68.01;100036.53;5000667;28;20446;-73
2021/03/13 01:30:26;;;;;;;2.00;0.82;;;;;;;5.41;68.20;100041.75;5000034;28;20029;-73
2021/03/13 01:32:52;;;;;;;2.45;1.40;;;;;;;5.41;68.02;100032.97;5018060;28;20042;-73
2021/03/13 01:35:20;;;;;;;3.38;1.17;;;;;;;5.26;68.72;100032.63;5005964;28;20045;-73
2021/03/13 01:37:46;;;;;;;2.25;1.10;;;;;;;5.24;68.58;100034.69;5003450;28;20080;-73
2021/03/13 01:40:16;;;;;;;3.60;1.52;;;;;;;5.30;68.47;100036.44;5002846;28;20054;-73
2021/03/13 01:42:44;;;;;;;1.58;1.33;;;;;;;5.13;69.25;100034.44;5002578;28;20069;-73
2021/03/13 01:45:11;;;;;;;1.83;1.30;;;;;;;5.15;69.10;100039.53;5003640;28;20037;-73
2021/03/13 01:47:37;;;;;;;4.03;1.88;;;;;;;5.06;69.73;100040.91;5017652;28;20484;-73
2021/03/13 01:50:06;;;;;;;2.75;1.52;;;;;;;5.01;69.90;100040.78;5004555;28;20034;-73
2021/03/13 01:52:32;;;;;;;1.85;1.17;;;;;;;4.91;70.33;100051.16;4997631;28;20029;-73
2021/03/13 01:54:58;;;;;;;4.05;1.27;;;;;;;4.81;70.73;100044.53;5001256;28;20030;-73
2021/03/13 01:57:23;;;;;;;1.75;1.30;;;;;;;4.79;70.71;100045.81;5004828;28;20037;-73
2021/03/13 01:59:49;;;;;;;3.38;1.70;;;;;;;4.53;72.20;100049.66;5004843;28;20045;-73
2021/03/13 02:02:15;;;;;;;2.38;1.60;;;;;;;4.47;72.42;100048.69;5003570;28;20072;-73
2021/03/13 02:04:41;;;;;;;4.22;1.80;;;;;;;4.46;72.38;100054.22;5002578;28;20036;-73
2021/03/13 02:07:24;;;;;;;4.28;2.00;;;;;;;4.38;73.09;100054.56;5002464;28;20034;-73
2021/03/13 02:10:03;;;;;;;3.95;1.77;;;;;;;4.40;72.38;100041.88;5000781;28;20030;-72
2021/03/13 02:13:03;;;;;;;2.33;1.75;;;;;;;4.42;72.07;100053.88;4999627;28;20117;-73
2021/03/13 02:16:02;;;;;;;4.18;1.88;;;;;;;4.42;72.18;100047.78;4996498;28;20411;-73
2021/03/13 02:18:48;;;;;;;3.47;2.15;;;;;;;4.28;72.73;100057.72;5001379;28;20127;-73
2021/03/13 02:21:22;;;;;;;2.78;1.63;;;;;;;4.36;72.49;100065.41;5003011;28;20080;-73
2021/03/13 02:24:03;;;;;;;4.07;2.13;;;;;;;4.25;73.08;100068.78;5001581;28;20034;-73
2021/03/13 02:26:53;;;;;;;2.88;2.03;;;;;;;4.19;73.60;100069.69;4997664;28;20030;-73
2021/03/13 02:29:35;;;;;;;3.28;2.08;;;;;;;4.15;73.47;100058.72;4999723;28;20030;-73
2021/03/13 02:32:07;;;;;;;4.35;2.78;;;;;;;4.21;73.31;100054.38;4997577;28;20021;-73
2021/03/13 02:34:40;;;;;;;2.92;1.67;;;;;;;4.25;72.64;100048.38;5001380;28;21091;-73
2021/03/13 02:37:12;;;;;;;4.55;2.17;;;;;;;4.17;73.40;100045.25;5000611;28;20030;-73
2021/03/13 02:39:42;;;;;;;3.95;2.45;;;;;;;4.16;73.50;100038.31;5001599;28;20018;-73
2021/03/13 02:42:10;;;;;;;4.72;2.20;;;;;;;4.16;73.39;100035.69;5001387;28;20021;-73
2021/03/13 02:44:38;;;;;;;4.05;2.13;;;;;;;4.16;72.90;100039.13;5003000;28;20026;-73
2021/03/13 02:47:05;;;;;;;2.13;1.92;;;;;;;4.08;73.48;100046.56;4999496;28;20029;-73
2021/03/13 02:49:33;;;;;;;2.88;2.17;;;;;;;4.02;74.21;100047.47;5002002;28;20490;-73
2021/03/13 02:51:59;;;;;;;2.38;1.90;;;;;;;4.07;73.83;100051.06;5000437;28;20037;-73
2021/03/13 02:54:25;;;;;;;3.40;2.00;;;;;;;4.04;73.78;100042.75;4999593;28;20033;-73
2021/03/13 02:56:52;;;;;;;2.70;2.10;;;;;;;4.08;74.17;100035.97;5001481;28;20034;-73
2021/03/13 02:59:19;;;;;;;10.52;2.33;;;;;;;4.01;74.70;100037.91;5000885;28;20030;-73
2021/03/13 03:01:48;;;;;;;3.40;2.22;;;;;;;3.97;74.70;100049.97;5000921;28;20022;-73
2021/03/13 03:04:16;;;;;;;3.42;2.25;;;;;;;3.96;74.37;100038.56;5000574;28;20057;-73
2021/03/13 03:06:46;;;;;;;2.72;2.20;;;;;;;4.04;73.93;100029.50;4996629;28;20570;-73
2021/03/13 03:09:13;;;;;;;4.60;2.10;;;;;;;3.96;74.74;100043.88;5017532;28;20053;-73
2021/03/13 03:11:41;;;;;;;3.17;2.50;;;;;;;3.92;74.54;100045.31;5000644;28;20037;-73
2021/03/13 03:14:10;;;;;;;2.63;1.92;;;;;;;3.90;74.44;100045.53;5003349;28;20053;-73
2021/03/13 03:16:39;;;;;;;5.50;2.35;;;;;;;3.84;75.34;100046.44;5003848;28;20022;-73
2021/03/13 03:19:06;;;;;;;3.15;2.33;;;;;;;3.88;74.47;100042.31;5020381;28;20034;-73
2021/03/13 03:21:34;;;;;;;4.80;2.58;;;;;;;3.76;75.02;100040.59;5004051;28;20033;-73
2021/03/13 03:24:01;;;;;;;2.78;1.98;;;;;;;3.73;75.82;100033.09;5006238;28;20030;-73
2021/03/13 03:26:26;;;;;;;4.38;2.70;;;;;;;3.80;75.15;100039.97;5004697;28;20036;-72
2021/03/13 03:28:52;;;;;;;3.38;2.20;;;;;;;3.75;75.62;100041.63;5008578;28;20483;-73
2021/03/13 03:31:17;;;;;;;4.68;2.63;;;;;;;3.71;75.55;100043.91;5006805;28;20026;-73
2021/03/13 03:33:43;;;;;;;5.68;3.10;;;;;;;3.62;76.88;100045.25;5001016;28;22051;-73
2021/03/13 03:36:10;;;;;;;7.38;3.03;;;;;;;3.70;75.67;100044.97;5006426;28;20091;-73
2021/03/13 03:38:39;;;;;;;5.78;3.35;;;;;;;3.54;76.99;100046.34;5028363;23;20404;-84
2021/03/13 03:41:05;;;;;;;3.22;2.63;;;;;;;3.50;77.68;100047.00;5014690;28;20030;-88
2021/03/13 03:43:48;;;;;;;7.35;2.70;;;;;;;3.59;76.89;100050.97;5025741;28;20380;-88
2021/03/13 03:46:14;;;;;;;4.43;3.03;;;;;;;3.55;76.98;100049.78;5033202;28;20069;-87
2021/03/13 03:48:41;;;;;;;7.82;3.75;;;;;;;3.62;76.64;100061.16;5046622;22;20472;-69
2021/03/13 03:51:13;;;;;;;5.20;3.17;;;;;;;3.61;76.86;100060.34;5022204;28;20036;-69
2021/03/13 03:53:44;;;;;;;6.82;4.03;;;;;;;3.55;77.65;100063.84;5025499;28;20030;-69
2021/03/13 03:56:10;;;;;;;7.57;3.90;;;;;;;3.60;77.52;100065.88;5016126;28;20177;-69
2021/03/13 03:58:44;;;;;;;8.35;3.15;;;;;;;3.59;77.54;100058.91;5022213;28;20442;-69
2021/03/13 04:01:11;;;;;;;7.10;3.80;;;;;;;3.65;76.96;100052.75;5036885;28;20032;-69
2021/03/13 04:03:53;;;;;;;5.22;3.22;;;;;;;3.64;76.97;100056.44;5025709;28;20026;-69
2021/03/13 04:06:19;;;;;;;7.38;3.97;;;;;;;3.72;76.48;100050.03;5021334;28;20060;-69
2021/03/13 04:08:48;;;;;;;5.43;3.60;;;;;;;3.65;77.83;100047.47;5041127;28;20165;-69
2021/03/13 04:11:17;;;;;;;6.53;3.78;;;;;;;3.77;76.74;100043.06;5019686;28;20112;-69
2021/03/13 04:13:43;;;;;;;12.57;3.92;;;;;;;3.72;77.58;100042.88;5033356;28;20398;-69
2021/03/13 04:16:13;;;;;;;7.07;3.60;;;;;;;3.68;77.51;100031.13;5024601;28;20068;-71
2021/03/13 04:18:40;;;;;;;8.52;3.95;;;;;;;3.72;77.10;100023.53;5024383;28;20128;-69
2021/03/13 04:21:06;;;;;;;7.88;4.28;;;;;;;3.57;78.13;100019.41;5029405;28;20022;-69
2021/03/13 04:23:35;;;;;;;9.38;4.18;;;;;;;3.43;79.57;100022.44;5039024;28;20029;-69
2021/03/13 04:26:02;;;;;;;7.35;4.32;;;;;;;3.55;78.06;100016.16;5034873;28;20034;-69
2021/03/13 04:28:28;;;;;;;8.68;5.10;;;;;;;3.62;77.66;100037.31;5022165;28;20553;-69
2021/03/13 04:30:54;;;;;;;7.38;4.53;;;;;;;3.56;78.75;100040.81;5022038;28;20109;-72
2021/03/13 04:33:21;;;;;;;6.22;4.13;;;;;;;3.60;78.09;100048.13;5026759;28;20032;-70
2021/03/13 04:35:50;;;;;;;10.73;4.90;;;;;;;3.64;78.37;100045.84;5029494;28;20092;-69
2021/03/13 04:38:19;;;;;;;11.73;5.22;;;;;;;3.66;78.05;100043.78;5022839;28;20032;-70
2021/03/13 04:40:46;;;;;;;8.93;4.15;;;;;;;3.67;77.88;100042.75;5030429;28;20036;-69
2021/03/13 04:43:13;;;;;;;8.77;5.05;;;;;;;3.76;77.37;100044.06;5034552;28;20108;-69
2021/03/13 04:45:41;;;;;;;9.85;4.65;;;;;;;3.76;77.60;100051.19;5030341;28;20030;-70
2021/03/13 04:48:07;;;;;;;8.38;4.85;;;;;;;3.72;77.58;100053.50;5029332;28;20025;-69
2021/03/13 04:50:32;;;;;;;10.75;4.72;;;;;;;3.68;78.04;100046.22;5025020;28;20071;-69
2021/03/13 04:52:58;;;;;;;7.20;4.82;;;;;;;3.68;77.68;100048.84;5023305;28;20040;-70
2021/03/13 04:55:24;;;;;;;6.53;3.90;;;;;;;3.76;76.92;100046.72;5021087;28;20626;-69
2021/03/13 04:57:49;;;;;;;8.63;4.78;;;;;;;3.71;77.11;100051.06;5037670;28;20072;-69
2021/03/13 05:00:16;;;;;;;6.13;3.55;;;;;;;3.77;76.47;100050.16;5026892;28;20025;-70
2021/03/13 05:02:41;;;;;;;9.73;4.20;;;;;;;3.74;76.38;100048.78;5017055;28;20037;-71
2021/03/13 05:05:08;;;;;;;7.40;4.20;;;;;;;3.75;76.31;100046.94;5021983;28;20029;-69
2021/03/13 05:07:33;;;;;;;5.70;3.42;;;;;;;3.62;76.93;100046.06;5032946;28;20028;-68
2021/03/13 05:09:59;;;;;;;5.85;3.20;;;;;;;3.66;76.71;100046.44;5026172;28;20029;-69
2021/03/13 05:12:25;;;;;;;6.70;4.00;;;;;;;3.61;77.37;100048.94;5025644;28;20050;-70
2021/03/13 05:14:50;;;;;;;10.40;4.03;;;;;;;3.69;76.91;100042.53;5032662;28;20029;-69
2021/03/13 05:17:16;;;;;;;10.65;4.32;;;;;;;3.71;77.02;100043.91;5028578;28;20036;-70
2021/03/13 05:19:41;;;;;;;7.05;3.65;;;;;;;3.89;76.05;100048.41;5031808;28;20022;-69
2021/03/13 05:22:08;;;;;;;4.60;3.25;;;;;;;3.92;76.02;100051.44;5024113;28;20026;-69
2021/03/13 05:24:33;;;;;;;6.50;4.18;;;;;;;3.97;76.27;100052.63;5023417;28;20025;-69
2021/03/13 05:26:59;;;;;;;6.00;3.22;;;;;;;4.03;76.02;100043.78;5023277;28;20072;-71
2021/03/13 05:29:24;;;;;;;10.35;3.78;;;;;;;4.07;75.52;100043.09;5011909;28;20030;-70
2021/03/13 05:31:50;;;;;;;10.93;3.47;;;;;;;4.09;75.36;100045.53;5026014;28;20021;-70
2021/03/13 05:34:16;;;;;;;7.47;3.40;;;;;;;3.97;76.01;100044.69;5020638;28;20033;-69
2021/03/13 05:36:41;;;;;;;3.67;3.08;;;;;;;3.90;76.00;100040.25;5021759;28;20030;-72
2021/03/13 05:39:07;;;;;;;7.70;3.55;;;;;;;3.86;75.92;100047.03;5024747;28;20061;-69
2021/03/13 05:41:36;;;;;;;6.72;3.15;;;;;;;3.85;75.91;100050.69;5022008;28;20025;-70
2021/03/13 05:44:05;;;;;;;6.22;3.30;;;;;;;3.82;76.41;100055.66;5026928;28;20029;-69
2021/03/13 05:46:35;;;;;;;4.25;2.65;;;;;;;3.84;75.91;100048.28;5026364;28;20524;-70
2021/03/13 05:49:05;;;;;;;7.63;3.00;;;;;;;3.75;76.39;100047.75;5019053;28;20116;-69
2021/03/13 05:51:42;;;;;;;5.78;2.83;;;;;;;3.77;75.94;100036.94;5025937;28;20402;-69
2021/03/13 05:54:08;;;;;;;5.72;3.13;;;;;;;3.70;76.40;100038.84;5031296;28;20060;-69
2021/03/13 05:56:33;;;;;;;7.53;3.20;;;;;;;3.73;76.00;100043.69;5030563;28;20065;-69
2021/03/13 05:59:00;;;;;;;5.75;3.10;;;;;;;3.88;75.36;100039.66;5028315;28;20132;-70
2021/03/13 06:01:30;;;;;;;4.78;2.40;;;;;;;3.97;75.34;100034.06;5028615;28;20037;-69
2021/03/13 06:03:56;;;;;;;6.45;3.15;;;;;;;4.03;74.86;100033.19;5023966;28;20032;-69
2021/03/13 06:06:23;;;;;;;4.38;2.50;;;;;;;4.08;74.59;100035.97;5022762;28;20053;-69
2021/03/13 06:08:49;;;;;;;7.20;2.88;;;;;;;4.07;74.47;100024.56;5028025;28;20738;-69
2021/03/13 06:11:21;;;;;;;7.13;2.70;;;;;;;4.10;74.23;100021.44;5026159;28;20400;-70
2021/03/13 06:13:47;;;;;;;5.57;2.42;;;;;;;4.13;74.33;100025.50;5024611;28;20069;-71
2021/03/13 06:16:13;;;;;;;4.10;2.65;;;;;;;4.12;74.22;100031.81;5015522;28;20036;-70
2021/03/13 06:18:47;;;;;;;5.57;2.50;;;;;;;4.25;73.76;100026.38;5015997;28;20104;-71
2021/03/13 06:21:23;;;;;;;6.18;2.53;;;;;;;4.37;73.16;100021.13;5022366;28;20021;-69
2021/03/13 06:23:55;;;;;;;4.03;2.30;;;;;;;4.43;72.51;100018.38;5033909;28;20783;-70
2021/03/13 06:26:20;;;;;;;6.07;2.47;;;;;;;4.62;72.50;100015.66;5018076;28;20033;-69
2021/03/13 06:28:46;;;;;;;2.67;2.22;;;;;;;4.53;72.59;100007.22;5019447;28;20391;-69
2021/03/13 06:31:13;;;;;;;5.22;2.72;;;;;;;4.66;72.12;99995.59;5017432;28;20033;-70
2021/03/13 06:33:40;;;;;;;2.90;1.90;;;;;;;4.63;72.45;99993.38;5023072;28;20078;-70
2021/03/13 06:36:08;;;;;;;4.25;2.10;;;;;;;4.78;72.09;99996.44;5026945;28;20115;-71
2021/03/13 06:38:37;;;;;;;4.85;2.20;;;;;;;4.83;71.94;99988.56;5022004;28;20542;-69
2021/03/13 06:41:19;;;;;;;3.53;2.20;;;;;;;4.85;72.38;99994.50;5022907;28;20079;-71
2021/03/13 06:43:46;;;;;;;5.75;2.13;;;;;;;4.85;72.08;99992.66;5027157;28;20045;-70
2021/03/13 06:46:18;;;;;;;4.10;1.98;;;;;;;4.95;71.77;99992.06;5023675;28;20030;-70
2021/03/13 06:48:49;;;;;;;4.00;1.65;;;;;;;5.05;71.52;99996.81;5022500;28;20744;-69
2021/03/13 06:51:28;;;;;;;5.75;1.90;;;;;;;5.14;71.40;99998.88;5016627;28;20087;-71
2021/03/13 06:54:16;;;;;;;3.05;1.90;;;;;;;5.21;70.63;99987.38;5024264;28;20049;-69
2021/03/13 06:56:45;;;;;;;1.98;1.77;;;;;;;5.14;71.28;99998.88;5026013;28;20028;-72
2021/03/13 06:59:34;;;;;;;3.13;1.75;;;;;;;5.23;70.73;99995.91;5018723;28;20505;-70
2021/03/13 07:02:01;;;;;;;1.77;1.00;;;;;;;4.97;71.60;99992.63;5019090;28;20030;-69
2021/03/13 07:04:45;;;;;;;2.97;1.85;;;;;;;4.95;71.53;99992.06;5033634;28;20035;-69
2021/03/13 07:07:12;;;;;;;3.90;2.20;;;;;;;5.07;71.69;99990.25;5032569;28;20060;-70
2021/03/13 07:09:43;;;;;;;2.42;1.42;;;;;;;5.01;71.62;99993.78;5028118;28;20065;-72
2021/03/13 07:12:34;;;;;;;2.28;1.33;;;;;;;5.04;71.22;99990.72;5017796;28;20084;-69
2021/03/13 07:15:22;;;;;;;1.55;1.23;;;;;;;4.99;71.25;99990.56;5018329;28;20025;-69
2021/03/13 07:17:58;;;;;;;3.05;1.42;;;;;;;5.15;71.05;99981.09;5017886;28;20117;-69
2021/03/13 07:20:29;;;;;;;4.13;1.50;;;;;;;5.24;70.97;99977.09;5018639;28;20582;-70
2021/03/13 07:23:03;;;;;;;2.35;1.52;;;;;;;5.21;70.67;99976.75;5027101;28;20032;-69
2021/03/13 07:25:30;;;;;;;3.97;1.53;;;;;;;5.37;70.68;99981.31;5020056;28;20029;-69
2021/03/13 07:27:57;;;;;;;2.67;1.67;;;;;;;5.40;70.34;99980.88;5033856;28;20397;-69
2021/03/13 07:30:25;;;;;;;2.22;1.33;;;;;;;5.45;69.90;99975.66;5029584;28;20087;-70
2021/03/13 07:32:55;;;;;;;3.72;1.30;;;;;;;5.67;69.14;99973.22;5029057;28;20033;-69
2021/03/13 07:35:22;;;;;;;4.50;1.42;;;;;;;5.75;69.39;99973.66;5014735;28;20022;-72
2021/03/13 07:37:54;;;;;;;1.38;1.27;;;;;;;5.89;68.62;99958.22;5023002;28;20061;-70
2021/03/13 07:40:21;;;;;;;1.98;1.50;;;;;;;6.09;67.97;99960.50;5032787;28;20021;-70
2021/03/13 07:42:47;;;;;;;4.60;1.67;;;;;;;6.20;67.88;99959.66;5020618;28;20090;-71
2021/03/13 07:45:14;;;;;;;2.63;1.58;;;;;;;6.11;67.48;99963.75;5019290;28;20557;-72
2021/03/13 07:47:41;;;;;;;2.92;1.67;;;;;;;6.04;67.88;99961.22;5019139;28;20403;-70
2021/03/13 07:50:12;;;;;;;2.17;1.30;;;;;;;6.01;68.29;99958.22;5021721;28;20033;-71
2021/03/13 07:52:39;;;;;;;3.35;1.70;;;;;;;6.14;68.05;99959.81;5017796;28;20491;-71
2021/03/13 07:55:12;;;;;;;3.22;1.88;;;;;;;6.21;67.57;99957.78;5013740;28;20068;-71
2021/03/13 07:57:41;;;;;;;4.05;1.77;;;;;;;6.28;67.47;99950.47;5019180;28;20018;-72
2021/03/13 08:00:07;;;;;;;2.03;1.67;;;;;;;6.34;67.35;99939.69;5017443;28;20118;-71
2021/03/13 08:02:32;;;;;;;2.10;1.40;;;;;;;6.15;67.19;99943.59;5019366;28;20743;-72
2021/03/13 08:05:04;;;;;;;2.13;1.50;;;;;;;6.32;67.57;99931.16;5019972;28;20037;-71
2021/03/13 08:07:55;;;;;;;2.03;1.58;;;;;;;6.36;67.03;99929.63;5023305;28;20086;-71
2021/03/13 08:10:50;;;;;;;2.15;1.50;;;;;;;6.39;67.74;99925.66;5021197;28;20032;-70
2021/03/13 08:13:28;;;;;;;2.95;1.65;;;;;;;6.46;67.00;99920.19;5000954;28;20576;-70
2021/03/13 08:16:09;;;;;;;1.85;1.50;;;;;;;6.79;65.94;99912.19;5021398;28;20033;-72
2021/03/13 08:18:42;;;;;;;2.88;1.70;;;;;;;6.81;66.07;99903.97;5031855;28;20029;-72
2021/03/13 08:21:23;;;;;;;5.53;1.90;;;;;;;6.85;65.17;99908.56;5035543;28;20601;-70
2021/03/13 08:23:56;;;;;;;2.13;1.40;;;;;;;7.01;65.06;99906.13;5014533;28;20030;-70
2021/03/13 08:26:34;;;;;;;2.35;1.58;;;;;;;7.17;64.58;99897.28;5033076;28;20038;-70
2021/03/13 08:29:01;;;;;;;3.63;1.50;;;;;;;7.19;64.36;99893.34;5036445;28;20506;-70
2021/03/13 08:31:32;;;;;;;2.03;1.45;;;;;;;7.18;63.67;99886.41;5020139;28;20060;-69
2021/03/13 08:34:04;;;;;;;1.65;1.20;;;;;;;7.20;64.18;99884.28;5025825;28;20029;-69
2021/03/13 08:36:37;;;;;;;1.80;1.15;;;;;;;7.31;63.63;99879.09;5029304;28;20511;-69
2021/03/13 08:39:11;;;;;;;3.53;1.40;;;;;;;7.36;62.71;99881.81;5017375;28;20055;-70
2021/03/13 08:41:42;;;;;;;3.13;1.55;;;;;;;7.46;62.91;99868.63;5016700;28;20349;-70
2021/03/13 08:44:11;;;;;;;2.55;1.45;;;;;;;7.44;62.45;99868.88;5012949;28;20396;-72
2021/03/13 08:46:48;;;;;;;2.90;1.75;;;;;;;7.48;63.06;99859.31;5013651;28;20164;-70
2021/03/13 08:49:27;;;;;;;2.95;1.50;;;;;;;7.21;63.02;99859.25;5017356;28;20040;-72
2021/03/13 08:52:05;;;;;;;3.17;1.42;;;;;;;7.37;63.51;99852.28;5018481;28;20112;-70
2021/03/13 08:54:40;;;;;;;1.73;1.40;;;;;;;7.00;63.66;99840.56;5018292;28;20116;-71
2021/03/13 08:57:09;;;;;;;;;;;;;;;6.94;64.67;99851.19;5022186;28;20013;-70
2021/03/13 08:59:36;;;;;;;2.63;1.17;;;;;;;7.08;64.19;99842.84;5021226;28;20482;-73
2021/03/13 09:02:17;;;;;;;4.95;1.50;;;;;;;7.19;64.00;99840.06;5023717;28;20033;-69
2021/03/13 09:04:50;;;;;;;3.53;1.35;;;;;;;7.03;64.25;99848.91;5021623;28;20033;-70
2021/03/13 09:07:20;;;;;;;2.55;1.20;;;;;;;7.06;64.28;99834.28;5027316;28;20025;-71
2021/03/13 09:09:46;;;;;;;2.72;1.40;;;;;;;7.17;64.27;99830.69;5027549;28;20030;-70
2021/03/13 09:12:17;;;;;;;2.53;1.17;;;;;;;7.28;64.04;99824.44;5040599;28;20029;-70
2021/03/13 09:14:45;;;;;;;2.40;1.40;;;;;;;7.13;64.36;99819.72;5042732;28;20487;-72
2021/03/13 09:17:13;;;;;;;2.92;2.00;;;;;;;7.20;64.76;99808.91;5017370;28;20502;-70
2021/03/13 09:19:41;;;;;;;2.88;1.40;;;;;;;7.34;63.61;99809.31;5033256;28;20112;-70
2021/03/13 09:22:13;;;;;;;1.77;1.48;;;;;;;7.25;64.73;99804.44;5016884;28;20091;-69
2021/03/13 09:24:38;;;;;;;2.10;1.25;;;;;;;7.03;65.51;99792.97;5043016;28;20025;-70
2021/03/13 09:27:05;;;;;;;2.20;1.20;;;;;;;7.00;66.02;99800.63;5019954;28;20399;-69
2021/03/13 09:29:34;;;;;;;1.15;1.05;;;;;;;6.77;67.05;99799.00;5020027;28;20038;-70
2021/03/13 09:32:14;;;;;;;1.38;1.20;;;;;;;6.53;69.05;99788.59;5024487;28;20064;-70
2021/03/13 09:34:40;;;;;;;3.03;1.45;;;;;;;6.57;69.12;99784.38;5015194;28;20109;-72
2021/03/13 09:37:32;;;;;;;3.80;1.60;;;;;;;6.74;69.38;99779.00;5009632;28;20025;-71
2021/03/13 09:42:30;;;;;;;3.58;1.80;;;;;;;6.59;71.76;99776.94;5003778;28;20046;-70
2021/03/13 09:44:58;;;;;;;1.98;1.20;;;;;;;6.22;73.01;99768.69;5007826;28;20029;-70
2021/03/13 09:47:35;;;;;;;9.43;1.90;;;;;;;5.98;74.01;99770.72;5008128;28;20025;-72
2021/03/13 09:50:06;;;;;;;2.47;1.35;;;;;;;5.93;75.86;99768.00;5000654;28;20037;-69
2021/03/13 09:52:42;;;;;;;1.80;1.63;;;;;;;6.13;75.25;99764.84;4994198;28;20760;-70
2021/03/13 09:55:17;;;;;;;3.22;1.70;;;;;;;5.92;76.30;99750.41;4994201;28;20373;-70
2021/03/13 09:57:48;;;;;;;2.45;1.80;;;;;;;5.85;77.16;99755.06;4994375;28;20026;-72
2021/03/13 10:00:28;;;;;;;6.38;2.70;;;;;;;5.89;78.41;99750.88;4989260;28;20560;-70
2021/03/13 10:02:56;;;;;;;6.28;3.03;;;;;;;5.81;78.47;99740.63;4988971;28;20037;-70
2021/03/13 10:05:25;;;;;;;4.88;3.17;;;;;;;5.91;79.35;99726.72;5003618;28;20036;-70
2021/03/13 10:07:51;;;;;;;4.68;3.28;;;;;;;5.80;79.34;99730.25;4993289;28;20121;-69
2021/03/13 10:10:25;;;;;;;4.55;2.65;;;;;;;5.62;80.62;99718.81;4993893;28;20049;-69
2021/03/13 10:12:58;;;;;;;4.30;3.25;;;;;;;5.86;79.44;99714.13;4996844;28;20025;-71
2021/03/13 10:15:38;;;;;;;3.88;2.75;;;;;;;5.84;79.50;99699.47;4989955;28;20101;-70
2021/03/13 10:18:07;;;;;;;4.85;3.17;;;;;;;5.91;79.44;99705.44;4989028;28;20480;-70
2021/03/13 10:20:54;;;;;;;3.03;2.22;;;;;;;5.79;79.92;99699.41;4994245;28;20029;-70
2021/03/13 10:23:24;;;;;;;5.40;3.10;;;;;;;5.44;81.34;99687.16;4990762;28;20034;-73
2021/03/13 10:26:08;;;;;;;1.63;1.52;;;;;;;5.36;81.92;99690.19;4999158;28;20042;-71
2021/03/13 10:28:37;;;;;;;1.92;1.77;;;;;;;5.35;81.78;99685.91;5000183;28;20121;-71
2021/03/13 10:31:27;;;;;;;1.75;1.65;;;;;;;5.28;82.47;99686.06;4983153;28;20054;-71
2021/03/13 10:33:54;;;;;;;1.60;1.50;;;;;;;5.19;83.15;99674.22;4999046;28;20053;-71
2021/03/13 10:36:40;;;;;;;2.17;1.35;;;;;;;5.08;83.82;99675.91;4994075;28;20030;-71
2021/03/13 10:39:06;;;;;;;2.08;1.60;;;;;;;5.23;83.04;99677.22;4987661;28;20034;-71
2021/03/13 10:41:32;;;;;;;3.42;2.45;;;;;;;5.32;84.08;99650.00;4994390;28;20450;-72
2021/03/13 10:43:58;;;;;;;4.13;1.90;;;;;;;5.16;84.05;99650.78;4992117;28;20045;-72
2021/03/13 10:46:25;;;;;;;3.25;1.58;;;;;;;5.12;83.56;99647.00;4989107;28;20023;-72
2021/03/13 10:48:54;;;;;;;3.25;2.25;;;;;;;5.38;83.48;99632.31;4994059;28;20481;-72
2021/03/13 10:51:25;;;;;;;3.60;1.95;;;;;;;5.18;84.31;99626.66;4995205;28;20029;-72
2021/03/13 10:53:51;;;;;;;2.83;1.52;;;;;;;5.33;83.50;99618.94;4994014;28;20034;-72
2021/03/13 10:56:17;;;;;;;3.30;1.90;;;;;;;5.55;82.49;99603.88;4992738;28;20478;-72
2021/03/13 10:58:47;;;;;;;3.97;2.20;;;;;;;5.64;82.21;99591.81;4995435;28;20133;-68
2021/03/13 11:01:13;;;;;;;3.50;2.38;;;;;;;5.59;83.36;99593.59;4977318;28;20096;-68
2021/03/13 11:03:42;;;;;;;3.38;2.35;;;;;;;5.81;81.78;99580.34;4992043;28;20026;-68
2021/03/13 11:06:07;;;;;;;3.50;2.45;;;;;;;5.87;81.58;99579.38;4972307;28;20029;-68
2021/03/13 11:08:33;;;;;;;5.10;2.45;;;;;;;5.83;82.10;99580.91;4990810;28;20120;-69
2021/03/13 11:10:59;;;;;;;5.03;2.17;;;;;;;6.02;80.56;99579.59;4998431;28;20125;-69
2021/03/13 11:13:25;;;;;;;3.50;2.63;;;;;;;5.88;82.01;99579.13;4992541;28;20598;-69
2021/03/13 11:15:52;;;;;;;5.00;2.53;;;;;;;5.91;82.02;99570.66;4987076;28;20032;-69
2021/03/13 11:18:18;;;;;;;4.68;2.70;;;;;;;5.84;82.85;99555.94;4978972;28;20125;-69
2021/03/13 11:20:44;;;;;;;4.32;2.60;;;;;;;5.98;81.91;99550.03;4996027;28;20029;-69
2021/03/13 11:23:11;;;;;;;5.47;2.75;;;;;;;5.93;82.41;99543.88;4978766;28;20030;-69
2021/03/13 11:25:36;;;;;;;3.50;2.22;;;;;;;5.76;83.66;99546.53;4988468;28;20034;-70
2021/03/13 11:28:03;;;;;;;2.42;2.03;;;;;;;5.58;84.48;99539.66;4994468;28;20091;-69
2021/03/13 11:30:29;;;;;;;2.17;1.52;;;;;;;5.45;85.41;99535.47;4992484;28;20033;-69
2021/03/13 11:32:55;;;;;;;2.80;1.83;;;;;;;5.54;84.81;99527.88;4983295;28;20088;-69
2021/03/13 11:35:21;;;;;;;2.38;1.35;;;;;;;5.55;84.18;99512.75;4993256;28;20034;-69
2021/03/13 11:37:47;;;;;;;1.67;1.33;;;;;;;5.61;84.39;99507.28;4993025;28;20700;-70
2021/03/13 11:40:16;;;;;;;2.72;1.98;;;;;;;5.82;83.67;99486.28;4983219;28;20080;-70
2021/03/13 11:42:41;;;;;;;2.67;2.05;;;;;;;5.72;84.48;99486.94;4997785;28;20041;-69
2021/03/13 11:45:10;;;;;;;3.00;1.70;;;;;;;5.62;85.40;99490.28;5000610;28;20025;-69
2021/03/13 11:47:36;;;;;;;1.75;1.58;;;;;;;5.65;84.48;99479.16;4997856;28;20053;-69
2021/03/13 11:50:04;;;;;;;1.50;1.40;;;;;;;5.61;85.63;99494.00;4996510;28;20073;-69